Time;durP1;ratioP1;P1;durP2;ratioP2;P2;SDS_P1;SDS_P2;PMS_P1;PMS_P2;Temp;Humidity;BMP_temperature;BMP_pressure;BME280_temperature;BME280_humidity;BME280_pressure;Samples;Min_cycle;Max_cycle;Signal;HPM_P1;HPM_P2
2023/10/25 00:01:10;;;;;;;6.20;3.90;;;9.20;99.90;;;;;;5061984;28;20431;-70
2023/10/25 00:03:38;;;;;;;3.90;3.50;;;9.20;99.90;;;;;;5065099;28;20438;-70
2023/10/25 00:06:05;;;;;;;4.80;3.88;;;9.20;99.90;;;;;;5068662;28;20420;-70
2023/10/25 00:08:33;;;;;;;4.80;3.90;;;9.20;99.90;;;;;;5063859;28;20773;-71
2023/10/25 00:11:07;;;;;;;4.82;3.78;;;9.20;99.90;;;;;;5067223;28;20837;-72
2023/10/25 00:13:34;;;;;;;5.40;4.20;;;9.20;99.90;;;;;;5064218;28;20449;-71
2023/10/25 00:16:01;;;;;;;4.65;3.60;;;9.10;99.90;;;;;;5060447;28;20436;-70
2023/10/25 00:18:28;;;;;;;5.57;4.45;;;9.10;99.90;;;;;;5066394;28;20438;-71
2023/10/25 00:20:55;;;;;;;4.47;3.80;;;9.10;99.90;;;;;;5064501;28;20769;-70
2023/10/25 00:23:22;;;;;;;6.15;3.65;;;9.10;99.90;;;;;;5063832;28;20426;-71
2023/10/25 00:25:51;;;;;;;5.00;3.90;;;9.20;99.90;;;;;;5064806;28;20495;-70
2023/10/25 00:28:19;;;;;;;4.30;3.90;;;9.10;99.90;;;;;;5070321;28;20417;-70
2023/10/25 00:30:47;;;;;;;4.15;3.30;;;9.10;99.90;;;;;;5062470;28;20511;-70
2023/10/25 00:33:14;;;;;;;5.60;3.80;;;9.10;99.90;;;;;;5058353;28;20427;-71
2023/10/25 00:35:41;;;;;;;4.60;3.60;;;9.10;99.90;;;;;;5062935;28;21166;-70
2023/10/25 00:38:07;;;;;;;6.18;4.28;;;9.10;99.90;;;;;;5068395;28;20446;-72
2023/10/25 00:40:34;;;;;;;5.35;4.00;;;9.10;99.90;;;;;;5064804;28;20528;-71
2023/10/25 00:43:16;;;;;;;5.40;4.22;;;9.10;99.90;;;;;;5057056;28;20915;-70
2023/10/25 00:46:01;;;;;;;7.43;4.10;;;9.10;99.90;;;;;;5058267;28;20778;-70
2023/10/25 00:48:29;;;;;;;5.30;4.35;;;9.10;99.90;;;;;;5082368;28;20527;-70
2023/10/25 00:50:57;;;;;;;5.22;4.30;;;9.10;99.90;;;;;;5079382;28;20555;-70
2023/10/25 00:53:25;;;;;;;4.30;3.80;;;9.00;99.90;;;;;;5063847;28;20430;-72
2023/10/25 00:55:53;;;;;;;4.78;4.28;;;9.10;99.90;;;;;;5064183;28;20745;-70
2023/10/25 00:58:24;;;;;;;4.63;3.88;;;9.10;99.90;;;;;;5066482;28;20819;-70
2023/10/25 01:00:52;;;;;;;5.30;4.38;;;9.10;99.90;;;;;;5056155;28;20452;-70
2023/10/25 01:03:19;;;;;;;4.80;3.60;;;9.00;99.90;;;;;;5070969;28;20437;-70
2023/10/25 01:05:46;;;;;;;5.60;4.00;;;9.00;99.90;;;;;;5066932;28;20569;-70
2023/10/25 01:08:12;;;;;;;7.85;4.40;;;9.00;99.90;;;;;;5065242;28;20415;-70
2023/10/25 01:10:40;;;;;;;5.05;4.05;;;9.00;99.90;;;;;;5046510;28;20492;-70
2023/10/25 01:13:06;;;;;;;5.07;4.57;;;9.00;99.90;;;;;;5063577;28;20436;-71
2023/10/25 01:15:34;;;;;;;4.80;4.30;;;9.00;99.90;;;;;;5062486;28;20435;-70
2023/10/25 01:18:01;;;;;;;6.03;4.45;;;9.00;99.90;;;;;;5061010;28;20427;-70
2023/10/25 01:20:28;;;;;;;4.75;4.35;;;9.00;99.90;;;;;;5066910;28;20445;-70
2023/10/25 01:22:56;;;;;;;6.40;5.40;;;9.00;99.90;;;;;;5072662;28;20467;-71
2023/10/25 01:25:22;;;;;;;7.13;5.55;;;9.00;99.90;;;;;;5058837;28;20444;-71
2023/10/25 01:27:49;;;;;;;8.02;6.20;;;9.00;99.90;;;;;;5052086;28;20425;-70
2023/10/25 01:30:16;;;;;;;7.20;6.50;;;9.00;99.90;;;;;;5060047;28;20450;-70
2023/10/25 01:32:42;;;;;;;6.95;6.00;;;9.00;99.90;;;;;;5065656;28;20486;-71
2023/10/25 01:35:10;;;;;;;6.25;5.63;;;9.00;99.90;;;;;;5065046;28;20412;-70
2023/10/25 01:37:37;;;;;;;6.85;5.35;;;9.00;99.90;;;;;;5064235;28;20431;-71
2023/10/25 01:40:06;;;;;;;5.82;5.25;;;9.00;99.90;;;;;;5062394;28;20431;-70
2023/10/25 01:42:33;;;;;;;6.30;5.43;;;9.00;99.90;;;;;;5072222;28;20414;-71
2023/10/25 01:45:01;;;;;;;6.43;5.18;;;9.00;99.90;;;;;;5065676;28;20439;-71
2023/10/25 01:47:28;;;;;;;7.15;5.47;;;9.00;99.90;;;;;;5065267;28;20457;-70
2023/10/25 01:49:54;;;;;;;5.70;5.20;;;9.00;99.90;;;;;;5061921;28;20452;-70
2023/10/25 01:52:21;;;;;;;5.55;4.95;;;8.90;99.90;;;;;;5060070;28;20444;-71
2023/10/25 01:54:50;;;;;;;5.53;5.03;;;8.90;99.90;;;;;;5061672;28;20435;-70
2023/10/25 01:57:18;;;;;;;5.90;5.30;;;8.90;99.90;;;;;;5057650;28;20435;-70
2023/10/25 01:59:45;;;;;;;5.93;5.33;;;8.90;99.90;;;;;;5065237;28;20498;-71
2023/10/25 02:02:12;;;;;;;6.20;5.60;;;8.90;99.90;;;;;;5059370;28;20443;-70
2023/10/25 02:04:39;;;;;;;5.90;5.30;;;8.90;99.90;;;;;;5067242;28;21119;-71
2023/10/25 02:07:06;;;;;;;6.47;5.50;;;8.80;99.90;;;;;;5060149;28;20411;-70
2023/10/25 02:09:33;;;;;;;5.53;4.95;;;8.80;99.90;;;;;;5058293;28;20845;-71
2023/10/25 02:11:59;;;;;;;6.15;5.30;;;8.80;99.90;;;;;;5057397;28;20503;-72
2023/10/25 02:14:27;;;;;;;5.80;5.30;;;8.80;99.90;;;;;;5061367;28;20453;-69
2023/10/25 02:16:54;;;;;;;5.78;5.28;;;8.80;99.90;;;;;;5059976;28;20673;-71
2023/10/25 02:19:21;;;;;;;6.30;5.70;;;8.70;99.90;;;;;;5058655;28;20446;-70
2023/10/25 02:21:48;;;;;;;8.25;5.47;;;8.70;99.90;;;;;;5058785;28;20446;-72
2023/10/25 02:24:15;;;;;;;6.15;5.50;;;8.70;99.90;;;;;;5060414;28;20440;-71
2023/10/25 02:26:42;;;;;;;6.32;5.70;;;8.70;99.90;;;;;;5061282;28;20887;-70
2023/10/25 02:29:09;;;;;;;5.70;5.20;;;8.70;99.90;;;;;;5070932;28;20966;-70
2023/10/25 02:31:38;;;;;;;6.00;5.10;;;8.70;99.90;;;;;;5062232;28;20538;-70
2023/10/25 02:34:05;;;;;;;6.00;4.90;;;8.60;99.90;;;;;;5063919;28;20443;-70
2023/10/25 02:36:32;;;;;;;7.03;5.00;;;8.60;99.90;;;;;;5064044;28;20419;-70
2023/10/25 02:38:59;;;;;;;6.22;5.63;;;8.60;99.90;;;;;;5061847;28;20432;-70
2023/10/25 02:41:25;;;;;;;6.45;5.70;;;8.60;99.90;;;;;;5057072;28;20407;-70
2023/10/25 02:43:53;;;;;;;6.68;5.70;;;8.60;99.90;;;;;;5060716;28;20874;-70
2023/10/25 02:46:20;;;;;;;5.65;5.10;;;8.60;99.90;;;;;;5063530;28;20532;-71
2023/10/25 02:48:50;;;;;;;6.85;5.20;;;8.60;99.90;;;;;;5064987;28;20419;-70
2023/10/25 02:51:17;;;;;;;5.50;5.00;;;8.60;99.90;;;;;;5064557;28;20412;-70
2023/10/25 02:53:43;;;;;;;5.38;4.88;;;8.50;99.90;;;;;;5065620;28;20526;-70
2023/10/25 02:56:10;;;;;;;7.50;5.50;;;8.50;99.90;;;;;;5068135;28;20438;-71
2023/10/25 02:58:37;;;;;;;5.88;5.28;;;8.50;99.90;;;;;;5067141;28;20427;-70
2023/10/25 03:01:05;;;;;;;6.00;5.40;;;8.50;99.90;;;;;;5062114;28;20848;-71
2023/10/25 03:03:33;;;;;;;6.30;5.70;;;8.50;99.90;;;;;;5072454;28;20925;-71
2023/10/25 03:06:01;;;;;;;6.53;5.93;;;8.50;99.90;;;;;;5067336;28;20431;-70
2023/10/25 03:08:29;;;;;;;6.55;5.90;;;8.50;99.90;;;;;;5065587;28;20427;-72
2023/10/25 03:10:56;;;;;;;6.13;5.53;;;8.50;99.90;;;;;;5066402;28;20435;-71
2023/10/25 03:13:22;;;;;;;6.03;5.43;;;8.50;99.90;;;;;;5067072;28;20427;-72
2023/10/25 03:15:49;;;;;;;6.85;6.15;;;8.50;99.90;;;;;;5061239;28;20546;-70
2023/10/25 03:18:16;;;;;;;7.20;6.05;;;8.40;99.90;;;;;;5068535;28;20435;-70
2023/10/25 03:20:42;;;;;;;6.65;5.90;;;8.40;99.90;;;;;;5067863;28;20407;-70
2023/10/25 03:23:10;;;;;;;5.97;5.43;;;8.40;99.90;;;;;;5065493;28;20570;-70
2023/10/25 03:25:37;;;;;;;6.55;5.95;;;8.40;99.90;;;;;;5066319;28;20454;-72
2023/10/25 03:28:04;;;;;;;6.85;6.15;;;8.40;99.90;;;;;;5067426;28;20458;-72
2023/10/25 03:30:31;;;;;;;7.22;6.35;;;8.30;99.90;;;;;;5064484;28;20455;-73
2023/10/25 03:32:58;;;;;;;6.43;5.82;;;8.40;99.90;;;;;;5057078;28;20440;-70
2023/10/25 03:35:26;;;;;;;6.22;5.63;;;8.30;99.90;;;;;;5063901;28;20418;-70
2023/10/25 03:37:52;;;;;;;8.00;6.50;;;8.30;99.90;;;;;;5058326;28;20800;-71
2023/10/25 03:40:21;;;;;;;6.28;5.68;;;8.30;99.90;;;;;;5068420;28;20925;-70
2023/10/25 03:42:47;;;;;;;6.72;6.13;;;8.30;99.90;;;;;;5069609;28;20414;-69
2023/10/25 03:45:14;;;;;;;6.63;6.03;;;8.20;99.90;;;;;;5058018;28;20514;-71
2023/10/25 03:47:41;;;;;;;6.97;5.70;;;8.20;99.90;;;;;;5066141;28;20435;-71
2023/10/25 03:50:09;;;;;;;7.20;6.50;;;8.20;99.90;;;;;;5058635;28;20450;-71
2023/10/25 03:52:35;;;;;;;6.68;6.07;;;8.20;99.90;;;;;;5064790;28;20438;-72
2023/10/25 03:55:02;;;;;;;6.90;6.10;;;8.20;99.90;;;;;;5066095;28;20606;-71
2023/10/25 03:57:31;;;;;;;7.10;6.40;;;8.20;99.90;;;;;;5071056;28;20409;-73
2023/10/25 03:59:57;;;;;;;7.10;6.40;;;8.20;99.90;;;;;;5064514;28;20782;-71
2023/10/25 04:02:24;;;;;;;7.93;6.40;;;8.20;99.90;;;;;;5056380;28;20435;-71
2023/10/25 04:04:51;;;;;;;8.00;6.57;;;8.10;99.90;;;;;;5059795;28;20753;-72
2023/10/25 04:07:17;;;;;;;9.57;7.10;;;8.10;99.90;;;;;;5054108;28;20432;-72
2023/10/25 04:09:44;;;;;;;9.65;6.50;;;8.10;99.90;;;;;;5062350;28;20459;-71
2023/10/25 04:12:12;;;;;;;7.68;6.57;;;8.10;99.90;;;;;;5068417;28;20428;-71
2023/10/25 04:14:45;;;;;;;9.23;7.15;;;8.10;99.90;;;;;;5073532;28;20701;-72
2023/10/25 04:17:12;;;;;;;8.85;7.13;;;8.10;99.90;;;;;;5058844;28;20909;-71
2023/10/25 04:19:39;;;;;;;8.73;7.05;;;8.10;99.90;;;;;;5061111;28;20431;-71
2023/10/25 04:22:07;;;;;;;9.50;7.22;;;8.10;99.90;;;;;;5061799;28;21528;-71
2023/10/25 04:24:34;;;;;;;11.00;7.53;;;8.10;99.90;;;;;;5066486;28;20428;-72
2023/10/25 04:27:02;;;;;;;11.60;7.80;;;8.10;99.90;;;;;;5055557;28;20441;-71
2023/10/25 04:29:28;;;;;;;8.77;6.95;;;8.10;99.90;;;;;;5051594;28;20470;-70
2023/10/25 04:31:57;;;;;;;11.10;7.07;;;8.10;99.90;;;;;;5059291;28;20519;-71
2023/10/25 04:34:24;;;;;;;8.20;6.70;;;8.10;99.90;;;;;;5054911;28;20434;-71
2023/10/25 04:36:50;;;;;;;7.20;6.50;;;8.10;99.90;;;;;;5068591;28;20543;-71
2023/10/25 04:39:18;;;;;;;7.20;6.50;;;8.10;99.90;;;;;;5054440;28;20514;-71
2023/10/25 04:41:45;;;;;;;7.47;6.77;;;8.10;99.90;;;;;;5065524;28;20454;-71
2023/10/25 04:44:13;;;;;;;9.07;7.70;;;8.10;99.90;;;;;;5053630;28;20429;-70
2023/10/25 04:46:39;;;;;;;10.73;7.95;;;8.10;99.90;;;;;;5055064;28;20442;-72
2023/10/25 04:49:07;;;;;;;8.77;7.88;;;8.10;99.90;;;;;;5059875;28;20439;-70
2023/10/25 04:51:34;;;;;;;9.77;7.90;;;8.10;99.90;;;;;;5065854;28;20875;-69
2023/10/25 04:54:01;;;;;;;9.70;8.10;;;8.10;99.90;;;;;;5068853;28;20439;-70
2023/10/25 04:56:28;;;;;;;10.10;7.90;;;8.10;99.90;;;;;;5055710;28;20738;-71
2023/10/25 04:58:54;;;;;;;9.50;8.50;;;8.10;99.90;;;;;;5063206;28;20426;-71
2023/10/25 05:01:21;;;;;;;9.20;7.53;;;8.00;99.90;;;;;;5066537;28;20437;-71
2023/10/25 05:03:48;;;;;;;8.85;7.95;;;8.00;99.90;;;;;;5060982;28;20428;-71
2023/10/25 05:06:16;;;;;;;8.60;7.80;;;8.10;99.90;;;;;;5056747;28;20430;-71
2023/10/25 05:08:44;;;;;;;10.30;7.80;;;8.00;99.90;;;;;;5088336;22;20491;-67
2023/10/25 05:11:14;;;;;;;10.18;8.18;;;8.10;99.90;;;;;;5082210;28;20655;-70
2023/10/25 05:13:41;;;;;;;9.55;8.20;;;8.00;99.90;;;;;;5077646;28;20429;-68
2023/10/25 05:16:09;;;;;;;9.07;8.18;;;8.10;99.90;;;;;;5083535;28;20432;-68
2023/10/25 05:18:37;;;;;;;9.48;8.10;;;8.10;99.90;;;;;;5078568;28;20427;-68
2023/10/25 05:21:04;;;;;;;9.63;8.25;;;8.00;99.90;;;;;;5080069;28;20436;-68
2023/10/25 05:23:34;;;;;;;9.10;8.30;;;8.00;99.90;;;;;;5080026;28;20430;-69
2023/10/25 05:26:02;;;;;;;10.30;8.70;;;8.00;99.90;;;;;;5081983;28;20448;-69
2023/10/25 05:28:30;;;;;;;8.30;7.50;;;8.00;99.90;;;;;;5086181;28;20425;-69
2023/10/25 05:31:01;;;;;;;9.00;7.93;;;8.00;99.90;;;;;;5086480;28;20854;-70
2023/10/25 05:33:30;;;;;;;9.07;7.80;;;8.10;99.90;;;;;;5087257;28;20433;-69
2023/10/25 05:35:57;;;;;;;9.65;7.82;;;8.10;99.90;;;;;;5084839;28;20441;-67
2023/10/25 05:38:24;;;;;;;8.50;7.60;;;8.10;99.90;;;;;;5085101;28;20950;-69
2023/10/25 05:40:54;;;;;;;7.97;7.07;;;8.10;99.90;;;;;;5086946;28;21014;-68
2023/10/25 05:43:26;;;;;;;8.98;6.85;;;8.10;99.90;;;;;;5087519;28;20876;-68
2023/10/25 05:45:52;;;;;;;8.23;7.40;;;8.20;99.90;;;;;;5086978;28;20425;-68
2023/10/25 05:48:20;;;;;;;7.15;6.55;;;8.20;99.90;;;;;;5088931;28;20784;-71
2023/10/25 05:50:50;;;;;;;7.47;5.90;;;8.20;99.90;;;;;;5085516;28;20939;-70
2023/10/25 05:53:18;;;;;;;6.70;6.00;;;8.30;99.90;;;;;;5086402;28;20518;-71
2023/10/25 05:55:46;;;;;;;8.70;6.55;;;8.40;99.90;;;;;;5082878;28;20927;-71
2023/10/25 05:58:14;;;;;;;7.60;6.90;;;8.40;99.90;;;;;;5086013;28;20441;-69
2023/10/25 06:00:48;;;;;;;6.60;5.88;;;8.40;99.90;;;;;;5084201;28;20437;-69
2023/10/25 06:03:17;;;;;;;8.15;5.95;;;8.40;99.90;;;;;;5083368;28;20416;-66
2023/10/25 06:05:45;;;;;;;6.60;5.90;;;8.40;99.90;;;;;;5085887;28;20426;-68
2023/10/25 06:08:13;;;;;;;6.85;5.65;;;8.40;99.90;;;;;;5083193;28;20417;-68
2023/10/25 06:10:41;;;;;;;8.20;6.00;;;8.40;99.90;;;;;;5084355;28;20437;-68
2023/10/25 06:13:09;;;;;;;6.28;5.70;;;8.40;99.90;;;;;;5081930;28;20497;-67
2023/10/25 06:15:37;;;;;;;8.93;6.15;;;8.40;99.90;;;;;;5086571;28;20422;-67
2023/10/25 06:18:07;;;;;;;9.43;6.90;;;8.40;99.90;;;;;;5085790;28;20413;-69
2023/10/25 06:20:34;;;;;;;7.97;7.18;;;8.40;99.90;;;;;;5079223;28;20512;-68
2023/10/25 06:23:01;;;;;;;9.23;6.40;;;8.40;99.90;;;;;;5077943;28;20421;-68
2023/10/25 06:25:30;;;;;;;8.10;6.40;;;8.40;99.90;;;;;;5079800;28;20417;-68
2023/10/25 06:27:57;;;;;;;7.60;6.53;;;8.40;99.90;;;;;;5088139;28;20409;-67
2023/10/25 06:30:24;;;;;;;6.80;6.00;;;8.40;99.90;;;;;;5089017;28;20508;-68
2023/10/25 06:32:52;;;;;;;6.47;5.78;;;8.40;99.90;;;;;;5090846;28;20409;-68
2023/10/25 06:35:19;;;;;;;6.87;5.73;;;8.40;99.90;;;;;;5082858;28;20702;-68
2023/10/25 06:37:47;;;;;;;6.75;6.15;;;8.40;99.90;;;;;;5085212;28;20413;-68
2023/10/25 06:40:15;;;;;;;7.00;6.30;;;8.40;99.90;;;;;;5090407;28;20800;-68
2023/10/25 06:42:42;;;;;;;6.85;6.00;;;8.50;99.90;;;;;;5090905;28;20406;-68
2023/10/25 06:45:14;;;;;;;9.02;5.93;;;8.50;99.90;;;;;;5089012;28;20426;-68
2023/10/25 06:47:42;;;;;;;6.95;6.35;;;8.50;99.90;;;;;;5082289;28;20763;-68
2023/10/25 06:50:12;;;;;;;6.05;5.45;;;8.50;99.90;;;;;;5084907;28;20436;-68
2023/10/25 06:52:39;;;;;;;6.00;5.40;;;8.50;99.90;;;;;;5090785;28;20406;-68
2023/10/25 06:55:07;;;;;;;6.03;5.43;;;8.60;99.90;;;;;;5091482;28;20436;-68
2023/10/25 06:57:35;;;;;;;6.57;5.47;;;8.60;99.90;;;;;;5088442;28;20406;-68
2023/10/25 07:00:04;;;;;;;5.93;4.90;;;8.60;99.90;;;;;;5086342;28;20457;-67
2023/10/25 07:02:39;;;;;;;7.47;4.97;;;8.60;99.90;;;;;;5090581;28;20418;-67
2023/10/25 07:05:12;;;;;;;7.05;5.40;;;8.60;99.90;;;;;;5084246;28;20495;-66
2023/10/25 07:07:41;;;;;;;7.55;5.95;;;8.70;99.90;;;;;;5086198;28;20583;-68
2023/10/25 07:10:09;;;;;;;6.07;4.90;;;8.80;99.90;;;;;;5082042;28;20433;-68
2023/10/25 07:12:35;;;;;;;6.28;4.20;;;8.80;99.90;;;;;;5085619;28;20463;-68
2023/10/25 07:15:03;;;;;;;6.40;4.53;;;8.80;99.90;;;;;;5080433;28;20516;-68
2023/10/25 07:17:30;;;;;;;5.35;3.80;;;8.90;99.90;;;;;;5084590;28;20413;-68
2023/10/25 07:19:58;;;;;;;5.40;3.53;;;9.00;99.90;;;;;;5083822;28;20435;-67
2023/10/25 07:22:27;;;;;;;4.53;3.90;;;9.10;99.90;;;;;;5088863;28;20449;-68
2023/10/25 07:24:54;;;;;;;3.78;3.42;;;9.10;99.90;;;;;;5087156;28;20422;-67
2023/10/25 07:27:21;;;;;;;4.30;3.22;;;9.20;99.90;;;;;;5089765;28;20429;-68
2023/10/25 07:29:48;;;;;;;5.03;3.22;;;9.30;99.90;;;;;;5090525;28;20753;-67
2023/10/25 07:32:15;;;;;;;3.47;3.10;;;9.30;99.90;;;;;;5088035;28;20425;-68
2023/10/25 07:34:42;;;;;;;4.25;3.10;;;9.40;99.90;;;;;;5083760;28;20694;-68
2023/10/25 07:37:09;;;;;;;5.30;3.30;;;9.50;99.90;;;;;;5083846;28;20413;-67
2023/10/25 07:39:37;;;;;;;4.30;2.70;;;9.50;99.90;;;;;;5080270;28;20429;-67
2023/10/25 07:42:04;;;;;;;4.00;2.40;;;9.60;99.90;;;;;;5085214;28;20425;-67
2023/10/25 07:44:31;;;;;;;3.60;2.50;;;9.60;99.90;;;;;;5080494;28;20906;-67
2023/10/25 07:46:58;;;;;;;4.40;2.67;;;9.70;99.90;;;;;;5085377;28;20437;-68
2023/10/25 07:49:25;;;;;;;6.10;2.45;;;9.70;99.90;;;;;;5085518;28;20438;-67
2023/10/25 07:51:53;;;;;;;3.78;2.30;;;9.70;99.90;;;;;;5083220;28;20406;-70
2023/10/25 07:54:19;;;;;;;5.32;2.97;;;9.80;99.90;;;;;;5088490;28;20421;-67
2023/10/25 07:56:47;;;;;;;3.70;2.20;;;9.80;99.90;;;;;;5090022;28;20429;-67
2023/10/25 07:59:14;;;;;;;3.00;2.20;;;9.90;99.90;;;;;;5081744;28;20412;-67
2023/10/25 08:01:41;;;;;;;4.22;2.40;;;10.00;99.90;;;;;;5088977;28;20434;-67
2023/10/25 08:04:08;;;;;;;3.30;2.10;;;10.10;99.90;;;;;;5085290;28;20418;-67
2023/10/25 08:06:35;;;;;;;2.97;2.40;;;10.10;99.90;;;;;;5089887;28;20402;-66
2023/10/25 08:09:02;;;;;;;2.53;2.30;;;10.20;99.90;;;;;;5089361;28;20410;-68
2023/10/25 08:11:34;;;;;;;3.25;2.15;;;10.30;99.90;;;;;;5074698;28;20451;-68
2023/10/25 08:14:02;;;;;;;2.65;2.20;;;10.40;99.90;;;;;;5082016;28;20441;-68
2023/10/25 08:16:29;;;;;;;2.50;1.90;;;10.40;99.90;;;;;;5081830;28;20937;-69
2023/10/25 08:18:55;;;;;;;3.15;1.70;;;10.40;99.90;;;;;;5084823;28;20433;-66
2023/10/25 08:21:22;;;;;;;1.90;1.70;;;10.40;99.90;;;;;;5087041;28;20417;-67
2023/10/25 08:23:51;;;;;;;2.83;2.00;;;10.50;99.90;;;;;;5079165;28;20414;-66
2023/10/25 08:26:17;;;;;;;4.20;2.00;;;10.50;99.90;;;;;;5086725;28;20433;-67
2023/10/25 08:28:44;;;;;;;2.22;1.80;;;10.40;99.90;;;;;;5088766;28;20464;-67
2023/10/25 08:31:13;;;;;;;4.28;2.15;;;10.40;99.90;;;;;;5081322;28;20421;-67
2023/10/25 08:33:39;;;;;;;3.97;2.00;;;10.50;99.90;;;;;;5087715;28;20425;-66
2023/10/25 08:36:07;;;;;;;2.45;1.67;;;10.40;99.90;;;;;;5086289;28;20436;-67
2023/10/25 08:38:34;;;;;;;4.30;2.40;;;10.50;99.90;;;;;;5079405;28;20512;-66
2023/10/25 08:41:02;;;;;;;2.60;1.60;;;10.50;99.90;;;;;;5085446;28;20825;-67
2023/10/25 08:43:29;;;;;;;3.05;1.63;;;10.50;99.90;;;;;;5081043;28;20609;-67
2023/10/25 08:45:56;;;;;;;2.80;1.80;;;10.50;99.90;;;;;;5088819;28;20467;-69
2023/10/25 08:48:25;;;;;;;3.13;1.80;;;10.50;99.90;;;;;;5087779;28;20437;-67
2023/10/25 08:50:52;;;;;;;3.30;2.00;;;10.50;99.90;;;;;;5080444;28;20408;-67
2023/10/25 08:53:23;;;;;;;2.80;1.85;;;10.50;99.90;;;;;;5086951;28;20406;-67
2023/10/25 08:55:51;;;;;;;3.22;2.20;;;10.50;99.90;;;;;;5080526;28;20508;-68
2023/10/25 08:58:18;;;;;;;3.30;2.00;;;10.50;99.90;;;;;;5086999;28;20406;-70
2023/10/25 09:00:45;;;;;;;4.22;2.30;;;10.50;99.90;;;;;;5087891;28;20438;-68
2023/10/25 09:03:38;;;;;;;3.30;2.20;;;10.40;99.90;;;;;;5084485;28;20433;-70
2023/10/25 09:06:07;;;;;;;4.38;2.20;;;10.30;99.90;;;;;;5083699;28;20422;-69
2023/10/25 09:08:34;;;;;;;3.67;2.30;;;10.30;99.90;;;;;;5082001;28;20406;-67
2023/10/25 09:11:02;;;;;;;2.92;2.20;;;10.20;99.90;;;;;;5082047;28;20416;-68
2023/10/25 09:13:30;;;;;;;3.53;2.20;;;10.20;99.90;;;;;;5080461;28;20939;-69
2023/10/25 09:16:04;;;;;;;3.47;2.30;;;10.30;99.90;;;;;;5082296;28;20796;-68
2023/10/25 09:18:33;;;;;;;3.30;2.22;;;10.30;99.90;;;;;;5085289;28;20433;-68
2023/10/25 09:21:01;;;;;;;3.92;2.10;;;10.30;99.90;;;;;;5083792;28;20414;-68
2023/10/25 09:23:28;;;;;;;3.20;2.37;;;10.30;99.90;;;;;;5079254;28;20419;-67
2023/10/25 09:25:55;;;;;;;3.30;2.17;;;10.40;99.90;;;;;;5081715;28;20418;-68
2023/10/25 09:28:27;;;;;;;2.72;2.00;;;10.40;99.90;;;;;;5084725;28;20721;-68
2023/10/25 09:30:54;;;;;;;2.43;2.20;;;10.40;99.90;;;;;;5087738;28;21001;-68
2023/10/25 09:33:21;;;;;;;3.30;2.05;;;10.40;99.90;;;;;;5084263;28;20483;-69
2023/10/25 09:35:50;;;;;;;2.60;2.00;;;10.40;99.90;;;;;;5079785;28;20425;-66
2023/10/25 09:38:17;;;;;;;3.00;2.70;;;10.50;99.90;;;;;;5079627;28;20903;-68
2023/10/25 09:40:45;;;;;;;4.37;2.20;;;10.50;99.90;;;;;;5086160;28;20553;-68
2023/10/25 09:43:16;;;;;;;2.63;2.20;;;10.60;99.90;;;;;;5085363;28;20812;-68
2023/10/25 09:45:43;;;;;;;3.50;1.80;;;10.70;99.90;;;;;;5086019;28;20410;-68
2023/10/25 09:48:12;;;;;;;2.72;1.95;;;10.70;99.90;;;;;;5086073;28;20536;-68
2023/10/25 09:50:42;;;;;;;2.78;2.00;;;10.70;99.90;;;;;;5087311;28;20758;-67
2023/10/25 09:53:18;;;;;;;3.10;2.50;;;10.80;99.90;;;;;;5087735;28;20414;-68
2023/10/25 09:55:54;;;;;;;5.30;4.13;;;10.80;99.90;;;;;;5083110;28;20432;-68
2023/10/25 09:58:23;;;;;;;4.80;3.60;;;10.80;99.90;;;;;;5085534;28;20510;-67
2023/10/25 10:00:50;;;;;;;4.25;3.10;;;10.90;99.90;;;;;;5081449;28;20417;-68
2023/10/25 10:03:23;;;;;;;2.95;2.65;;;10.90;99.90;;;;;;5086510;28;20434;-67
2023/10/25 10:05:56;;;;;;;3.30;2.80;;;10.90;99.90;;;;;;5080737;28;20423;-68
2023/10/25 10:08:36;;;;;;;3.50;2.70;;;10.90;99.90;;;;;;5090691;28;20509;-68
2023/10/25 10:11:10;;;;;;;4.22;3.20;;;10.90;99.90;;;;;;5087215;28;20433;-68
2023/10/25 10:13:36;;;;;;;4.30;3.10;;;10.80;99.90;;;;;;5082158;28;20448;-68
2023/10/25 10:16:05;;;;;;;5.30;3.22;;;10.80;99.90;;;;;;5087101;28;20421;-68
2023/10/25 10:18:33;;;;;;;4.15;3.55;;;10.70;99.90;;;;;;5089743;28;20444;-68
2023/10/25 10:21:01;;;;;;;3.90;3.58;;;10.70;99.90;;;;;;5091320;28;20414;-67
2023/10/25 10:23:38;;;;;;;5.93;4.00;;;10.60;99.90;;;;;;5088216;28;20499;-67
2023/10/25 10:26:05;;;;;;;4.50;4.10;;;10.50;99.90;;;;;;5086574;28;20425;-68
2023/10/25 10:28:41;;;;;;;5.78;4.60;;;10.50;99.90;;;;;;5090750;28;20422;-68
2023/10/25 10:31:09;;;;;;;5.28;4.75;;;10.40;99.90;;;;;;5088919;28;20775;-67
2023/10/25 10:33:43;;;;;;;5.63;5.10;;;10.30;99.90;;;;;;5080492;28;20426;-67
2023/10/25 10:36:10;;;;;;;6.20;5.60;;;10.20;99.90;;;;;;5086570;28;20442;-66
2023/10/25 10:39:11;;;;;;;6.35;5.70;;;10.20;99.90;;;;;;5083112;28;20514;-68
2023/10/25 10:41:38;;;;;;;8.00;7.00;;;10.10;99.90;;;;;;5073284;28;20830;-68
2023/10/25 10:44:05;;;;;;;8.40;7.60;;;10.10;99.90;;;;;;5088285;28;20432;-67
2023/10/25 10:46:34;;;;;;;8.32;7.57;;;10.00;99.90;;;;;;5084769;28;20907;-67
2023/10/25 10:49:02;;;;;;;9.07;8.20;;;10.00;99.90;;;;;;5089612;28;20915;-67
2023/10/25 10:51:29;;;;;;;8.60;7.80;;;10.00;99.90;;;;;;5083731;28;20411;-68
2023/10/25 10:53:55;;;;;;;10.00;9.05;;;10.00;99.90;;;;;;5087501;28;20414;-67
2023/10/25 10:56:24;;;;;;;10.40;9.50;;;10.00;99.90;;;;;;5089365;28;20422;-68
2023/10/25 10:58:52;;;;;;;9.75;8.93;;;10.00;99.90;;;;;;5087731;28;20698;-67
2023/10/25 11:01:18;;;;;;;10.95;9.95;;;10.00;99.90;;;;;;5087712;28;20429;-68
2023/10/25 11:03:45;;;;;;;10.70;9.60;;;10.00;99.90;;;;;;5088552;28;20432;-68
2023/10/25 11:06:12;;;;;;;11.30;10.30;;;10.00;99.90;;;;;;5088105;28;20472;-67
2023/10/25 11:08:38;;;;;;;11.60;10.50;;;10.00;99.90;;;;;;5086640;28;20896;-67
2023/10/25 11:11:06;;;;;;;12.17;11.00;;;10.00;99.90;;;;;;5090409;28;20410;-67
2023/10/25 11:13:34;;;;;;;11.73;10.52;;;10.00;99.90;;;;;;5085739;28;20872;-68
2023/10/25 11:16:02;;;;;;;12.23;10.98;;;10.00;99.90;;;;;;5090913;28;20422;-67
2023/10/25 11:18:28;;;;;;;11.38;10.38;;;9.90;99.90;;;;;;5082491;28;20985;-68
2023/10/25 11:20:55;;;;;;;11.73;10.52;;;9.90;99.90;;;;;;5085796;28;20410;-68
2023/10/25 11:23:22;;;;;;;11.63;10.52;;;9.90;99.90;;;;;;5088312;28;20796;-67
2023/10/25 11:25:48;;;;;;;11.70;10.50;;;9.90;99.90;;;;;;5085003;28;20776;-68
2023/10/25 11:28:18;;;;;;;11.98;10.70;;;9.90;99.90;;;;;;5086704;28;20430;-68
2023/10/25 11:30:48;;;;;;;12.23;11.05;;;9.90;99.90;;;;;;5090285;28;20839;-68
2023/10/25 11:33:15;;;;;;;11.35;10.35;;;9.90;99.90;;;;;;5086369;28;20417;-68
2023/10/25 11:35:43;;;;;;;12.65;11.45;;;10.00;99.90;;;;;;5089492;28;20792;-68
2023/10/25 11:38:10;;;;;;;11.30;10.20;;;10.00;99.90;;;;;;5090476;28;20788;-67
2023/10/25 11:40:39;;;;;;;10.98;9.88;;;10.00;99.90;;;;;;5082073;28;20923;-68
2023/10/25 11:43:07;;;;;;;11.18;9.80;;;10.00;99.90;;;;;;5087700;28;20430;-68
2023/10/25 11:45:35;;;;;;;10.57;9.18;;;10.00;99.90;;;;;;5086888;28;20414;-68
2023/10/25 11:48:03;;;;;;;11.45;10.15;;;10.00;99.90;;;;;;5089410;28;20884;-68
2023/10/25 11:50:30;;;;;;;9.98;8.90;;;10.00;99.90;;;;;;5084224;28;20414;-67
2023/10/25 11:52:58;;;;;;;11.70;10.50;;;10.00;99.90;;;;;;5082331;28;20475;-68
2023/10/25 11:55:25;;;;;;;11.88;9.65;;;10.00;99.90;;;;;;5084338;28;20525;-68
2023/10/25 11:57:52;;;;;;;10.70;9.60;;;10.00;99.90;;;;;;5075002;28;20459;-68
2023/10/25 12:00:19;;;;;;;10.20;9.10;;;10.00;99.90;;;;;;5084739;28;20775;-67
2023/10/25 12:02:46;;;;;;;10.60;9.10;;;10.10;99.90;;;;;;5084700;28;20799;-68
2023/10/25 12:05:14;;;;;;;10.32;8.88;;;10.10;99.90;;;;;;5088625;28;20433;-68
2023/10/25 12:07:41;;;;;;;9.25;8.35;;;10.10;99.90;;;;;;5087865;28;20426;-68
2023/10/25 12:10:09;;;;;;;9.98;8.30;;;10.10;99.90;;;;;;5082423;28;20433;-68
2023/10/25 12:12:37;;;;;;;12.82;10.07;;;10.10;99.90;;;;;;5088153;28;20807;-68
2023/10/25 12:15:06;;;;;;;9.40;8.45;;;10.10;99.90;;;;;;5083084;28;20431;-68
2023/10/25 12:17:32;;;;;;;9.90;8.30;;;10.10;99.90;;;;;;5089278;28;20609;-68
2023/10/25 12:19:59;;;;;;;9.93;8.50;;;10.10;99.90;;;;;;5086034;28;20426;-67
2023/10/25 12:22:27;;;;;;;10.10;9.00;;;10.20;99.90;;;;;;5087557;28;20406;-68
2023/10/25 12:24:54;;;;;;;14.93;11.27;;;10.20;99.90;;;;;;5086040;28;20410;-68
2023/10/25 12:27:20;;;;;;;16.10;11.48;;;10.20;99.90;;;;;;5087318;28;20410;-68
2023/10/25 12:29:47;;;;;;;12.10;10.80;;;10.20;99.90;;;;;;5087653;28;20425;-68
2023/10/25 12:32:14;;;;;;;12.45;10.32;;;10.30;99.90;;;;;;5086789;28;20495;-67
2023/10/25 12:34:41;;;;;;;9.70;8.70;;;10.30;99.90;;;;;;5088016;28;20946;-67
2023/10/25 12:37:08;;;;;;;8.35;7.55;;;10.30;99.90;;;;;;5085246;28;21012;-67
2023/10/25 12:39:36;;;;;;;9.40;7.88;;;10.30;99.90;;;;;;5080866;28;20479;-67
2023/10/25 12:42:03;;;;;;;8.10;7.40;;;10.30;99.90;;;;;;5083757;28;20413;-67
2023/10/25 12:44:30;;;;;;;8.80;8.00;;;10.30;99.90;;;;;;5084127;28;20460;-67
2023/10/25 12:46:57;;;;;;;7.60;6.80;;;10.30;99.90;;;;;;5088985;28;20410;-68
2023/10/25 12:49:23;;;;;;;7.80;7.00;;;10.30;99.90;;;;;;5085645;28;20440;-67
2023/10/25 12:51:50;;;;;;;7.80;7.10;;;10.30;99.90;;;;;;5079127;28;20426;-68
2023/10/25 12:54:17;;;;;;;8.52;7.63;;;10.30;99.90;;;;;;5083723;28;20427;-68